sensor_id;sensor_type;location;lat;lon;timestamp;temperature;humidity
36924;DHT22;22841;50.252;18.688;2023-08-08T00:02:01;13.70;99.90
36924;DHT22;22841;50.252;18.688;2023-08-08T00:04:28;13.70;99.90
36924;DHT22;22841;50.252;18.688;2023-08-08T00:06:54;13.70;99.90
36924;DHT22;22841;50.252;18.688;2023-08-08T00:09:20;13.70;99.90
36924;DHT22;22841;50.252;18.688;2023-08-08T00:11:46;13.60;99.90
36924;DHT22;22841;50.252;18.688;2023-08-08T00:14:13;13.70;99.90
36924;DHT22;22841;50.252;18.688;2023-08-08T00:16:39;13.70;99.90
36924;DHT22;22841;50.252;18.688;2023-08-08T00:19:05;13.70;99.90
36924;DHT22;22841;50.252;18.688;2023-08-08T00:21:31;13.60;99.90
36924;DHT22;22841;50.252;18.688;2023-08-08T00:23:57;13.60;99.90
36924;DHT22;22841;50.252;18.688;2023-08-08T00:26:24;13.60;99.90
36924;DHT22;22841;50.252;18.688;2023-08-08T00:28:50;13.60;99.90
36924;DHT22;22841;50.252;18.688;2023-08-08T00:31:16;13.60;99.90
36924;DHT22;22841;50.252;18.688;2023-08-08T00:33:43;13.60;99.90
36924;DHT22;22841;50.252;18.688;2023-08-08T00:36:09;13.60;99.90
36924;DHT22;22841;50.252;18.688;2023-08-08T00:38:36;13.60;99.90
36924;DHT22;22841;50.252;18.688;2023-08-08T00:41:02;13.60;99.90
36924;DHT22;22841;50.252;18.688;2023-08-08T00:43:30;13.60;99.90
36924;DHT22;22841;50.252;18.688;2023-08-08T00:45:57;13.50;99.90
36924;DHT22;22841;50.252;18.688;2023-08-08T00:48:24;13.50;99.90
36924;DHT22;22841;50.252;18.688;2023-08-08T00:50:50;13.50;99.90
36924;DHT22;22841;50.252;18.688;2023-08-08T00:53:18;13.40;99.90
36924;DHT22;22841;50.252;18.688;2023-08-08T00:55:46;13.40;99.90
36924;DHT22;22841;50.252;18.688;2023-08-08T00:58:13;13.30;99.90
36924;DHT22;22841;50.252;18.688;2023-08-08T01:00:39;13.30;99.90
36924;DHT22;22841;50.252;18.688;2023-08-08T01:03:05;13.20;99.90
36924;DHT22;22841;50.252;18.688;2023-08-08T01:08:26;13.20;99.90
36924;DHT22;22841;50.252;18.688;2023-08-08T01:10:53;13.10;99.90
36924;DHT22;22841;50.252;18.688;2023-08-08T01:13:22;13.10;99.90
36924;DHT22;22841;50.252;18.688;2023-08-08T01:15:50;13.00;99.90
36924;DHT22;22841;50.252;18.688;2023-08-08T01:18:17;13.10;99.90
36924;DHT22;22841;50.252;18.688;2023-08-08T01:20:44;13.20;99.90
36924;DHT22;22841;50.252;18.688;2023-08-08T01:23:34;13.20;99.90
36924;DHT22;22841;50.252;18.688;2023-08-08T01:26:07;13.10;99.90
36924;DHT22;22841;50.252;18.688;2023-08-08T01:28:34;13.10;99.90
36924;DHT22;22841;50.252;18.688;2023-08-08T01:31:00;13.10;99.90
36924;DHT22;22841;50.252;18.688;2023-08-08T01:33:26;13.10;99.90
36924;DHT22;22841;50.252;18.688;2023-08-08T01:36:04;13.00;99.90
36924;DHT22;22841;50.252;18.688;2023-08-08T01:38:40;13.00;99.90
36924;DHT22;22841;50.252;18.688;2023-08-08T01:41:07;13.00;99.90
36924;DHT22;22841;50.252;18.688;2023-08-08T01:43:36;13.00;99.90
36924;DHT22;22841;50.252;18.688;2023-08-08T01:46:04;12.90;99.90
36924;DHT22;22841;50.252;18.688;2023-08-08T01:48:31;12.90;99.90
36924;DHT22;22841;50.252;18.688;2023-08-08T01:50:57;12.90;99.90
36924;DHT22;22841;50.252;18.688;2023-08-08T01:53:23;12.80;99.90
36924;DHT22;22841;50.252;18.688;2023-08-08T01:55:51;12.80;99.90
36924;DHT22;22841;50.252;18.688;2023-08-08T01:58:18;12.80;99.90
36924;DHT22;22841;50.252;18.688;2023-08-08T02:00:44;12.80;99.90
36924;DHT22;22841;50.252;18.688;2023-08-08T02:03:12;12.70;99.90
36924;DHT22;22841;50.252;18.688;2023-08-08T02:05:38;12.80;99.90
36924;DHT22;22841;50.252;18.688;2023-08-08T02:08:05;12.70;99.90
36924;DHT22;22841;50.252;18.688;2023-08-08T02:10:31;12.70;99.90
36924;DHT22;22841;50.252;18.688;2023-08-08T02:12:58;12.80;99.90
36924;DHT22;22841;50.252;18.688;2023-08-08T02:15:24;12.80;99.90
36924;DHT22;22841;50.252;18.688;2023-08-08T02:17:50;12.80;99.90
36924;DHT22;22841;50.252;18.688;2023-08-08T02:20:16;12.80;99.90
36924;DHT22;22841;50.252;18.688;2023-08-08T02:22:44;12.70;99.90
36924;DHT22;22841;50.252;18.688;2023-08-08T02:25:10;12.70;99.90
36924;DHT22;22841;50.252;18.688;2023-08-08T02:27:36;12.70;99.90
36924;DHT22;22841;50.252;18.688;2023-08-08T02:30:02;12.70;99.90
36924;DHT22;22841;50.252;18.688;2023-08-08T02:32:29;12.70;99.90
36924;DHT22;22841;50.252;18.688;2023-08-08T02:34:55;12.70;99.90
36924;DHT22;22841;50.252;18.688;2023-08-08T02:37:21;12.70;99.90
36924;DHT22;22841;50.252;18.688;2023-08-08T02:39:47;12.70;99.90
36924;DHT22;22841;50.252;18.688;2023-08-08T02:42:13;12.70;99.90
36924;DHT22;22841;50.252;18.688;2023-08-08T02:44:40;12.70;99.90
36924;DHT22;22841;50.252;18.688;2023-08-08T02:47:06;12.70;99.90
36924;DHT22;22841;50.252;18.688;2023-08-08T02:49:32;12.70;99.90
36924;DHT22;22841;50.252;18.688;2023-08-08T02:52:00;12.70;99.90
36924;DHT22;22841;50.252;18.688;2023-08-08T02:54:26;12.70;99.90
36924;DHT22;22841;50.252;18.688;2023-08-08T02:56:53;12.70;99.90
36924;DHT22;22841;50.252;18.688;2023-08-08T02:59:19;12.70;99.90
36924;DHT22;22841;50.252;18.688;2023-08-08T03:01:46;12.70;99.90
36924;DHT22;22841;50.252;18.688;2023-08-08T03:04:13;12.70;99.90
36924;DHT22;22841;50.252;18.688;2023-08-08T03:06:39;12.80;99.90
36924;DHT22;22841;50.252;18.688;2023-08-08T03:09:05;12.80;99.90
36924;DHT22;22841;50.252;18.688;2023-08-08T03:11:31;12.70;99.90
36924;DHT22;22841;50.252;18.688;2023-08-08T03:13:58;12.70;99.90
36924;DHT22;22841;50.252;18.688;2023-08-08T03:16:24;12.70;99.90
36924;DHT22;22841;50.252;18.688;2023-08-08T03:18:50;12.80;99.90
36924;DHT22;22841;50.252;18.688;2023-08-08T03:21:16;12.80;99.90
36924;DHT22;22841;50.252;18.688;2023-08-08T03:23:44;12.80;99.90
36924;DHT22;22841;50.252;18.688;2023-08-08T03:26:10;12.80;99.90
36924;DHT22;22841;50.252;18.688;2023-08-08T03:28:36;12.80;99.90
36924;DHT22;22841;50.252;18.688;2023-08-08T03:31:03;12.80;99.90
36924;DHT22;22841;50.252;18.688;2023-08-08T03:33:29;12.80;99.90
36924;DHT22;22841;50.252;18.688;2023-08-08T03:35:55;12.80;99.90
36924;DHT22;22841;50.252;18.688;2023-08-08T03:38:21;12.70;99.90
36924;DHT22;22841;50.252;18.688;2023-08-08T03:40:48;12.70;99.90
36924;DHT22;22841;50.252;18.688;2023-08-08T03:43:14;12.70;99.90
36924;DHT22;22841;50.252;18.688;2023-08-08T03:45:40;12.70;99.90
36924;DHT22;22841;50.252;18.688;2023-08-08T03:48:06;12.70;99.90
36924;DHT22;22841;50.252;18.688;2023-08-08T03:50:33;12.70;99.90
36924;DHT22;22841;50.252;18.688;2023-08-08T03:52:59;12.70;99.90
36924;DHT22;22841;50.252;18.688;2023-08-08T03:55:25;12.80;99.90
36924;DHT22;22841;50.252;18.688;2023-08-08T03:57:51;12.70;99.90
36924;DHT22;22841;50.252;18.688;2023-08-08T04:00:18;12.70;99.90
36924;DHT22;22841;50.252;18.688;2023-08-08T04:02:44;12.70;99.90
36924;DHT22;22841;50.252;18.688;2023-08-08T04:05:10;12.70;99.90
36924;DHT22;22841;50.252;18.688;2023-08-08T04:07:37;12.70;99.90
36924;DHT22;22841;50.252;18.688;2023-08-08T04:10:03;12.70;99.90
36924;DHT22;22841;50.252;18.688;2023-08-08T04:12:30;12.70;99.90
36924;DHT22;22841;50.252;18.688;2023-08-08T04:14:58;12.80;99.90
36924;DHT22;22841;50.252;18.688;2023-08-08T04:17:24;12.80;99.90
36924;DHT22;22841;50.252;18.688;2023-08-08T04:19:51;12.70;99.90
36924;DHT22;22841;50.252;18.688;2023-08-08T04:22:17;12.80;99.90
36924;DHT22;22841;50.252;18.688;2023-08-08T04:24:43;12.80;99.90
36924;DHT22;22841;50.252;18.688;2023-08-08T04:27:09;12.80;99.90
36924;DHT22;22841;50.252;18.688;2023-08-08T04:29:36;12.80;99.90
36924;DHT22;22841;50.252;18.688;2023-08-08T04:32:02;12.80;99.90
36924;DHT22;22841;50.252;18.688;2023-08-08T04:34:29;12.80;99.90
36924;DHT22;22841;50.252;18.688;2023-08-08T04:36:55;12.80;99.90
36924;DHT22;22841;50.252;18.688;2023-08-08T04:39:21;12.80;99.90
36924;DHT22;22841;50.252;18.688;2023-08-08T04:41:47;12.80;99.90
36924;DHT22;22841;50.252;18.688;2023-08-08T04:44:13;12.80;99.90
36924;DHT22;22841;50.252;18.688;2023-08-08T04:46:40;12.80;99.90
36924;DHT22;22841;50.252;18.688;2023-08-08T04:49:06;12.80;99.90
36924;DHT22;22841;50.252;18.688;2023-08-08T04:51:32;12.80;99.90
36924;DHT22;22841;50.252;18.688;2023-08-08T04:53:58;12.90;99.90
36924;DHT22;22841;50.252;18.688;2023-08-08T04:56:24;12.90;99.90
36924;DHT22;22841;50.252;18.688;2023-08-08T04:58:51;12.90;99.90
36924;DHT22;22841;50.252;18.688;2023-08-08T05:01:17;12.90;99.90
36924;DHT22;22841;50.252;18.688;2023-08-08T05:03:46;13.00;99.90
36924;DHT22;22841;50.252;18.688;2023-08-08T05:06:12;12.90;99.90
36924;DHT22;22841;50.252;18.688;2023-08-08T05:08:38;12.90;99.90
36924;DHT22;22841;50.252;18.688;2023-08-08T05:11:05;12.90;99.90
36924;DHT22;22841;50.252;18.688;2023-08-08T05:13:31;12.90;99.90
36924;DHT22;22841;50.252;18.688;2023-08-08T05:15:57;13.00;99.90
36924;DHT22;22841;50.252;18.688;2023-08-08T05:18:23;13.10;99.90
36924;DHT22;22841;50.252;18.688;2023-08-08T05:20:49;13.00;99.90
36924;DHT22;22841;50.252;18.688;2023-08-08T05:23:16;13.00;99.90
36924;DHT22;22841;50.252;18.688;2023-08-08T05:25:42;13.00;99.90
36924;DHT22;22841;50.252;18.688;2023-08-08T05:28:08;13.00;99.90
36924;DHT22;22841;50.252;18.688;2023-08-08T05:30:35;12.90;99.90
36924;DHT22;22841;50.252;18.688;2023-08-08T05:33:01;13.00;99.90
36924;DHT22;22841;50.252;18.688;2023-08-08T05:35:27;13.00;99.90
36924;DHT22;22841;50.252;18.688;2023-08-08T05:37:53;13.10;99.90
36924;DHT22;22841;50.252;18.688;2023-08-08T05:40:20;13.10;99.90
36924;DHT22;22841;50.252;18.688;2023-08-08T05:42:46;13.20;99.90
36924;DHT22;22841;50.252;18.688;2023-08-08T05:45:12;13.20;99.90
36924;DHT22;22841;50.252;18.688;2023-08-08T05:47:38;13.30;99.90
36924;DHT22;22841;50.252;18.688;2023-08-08T05:50:05;13.30;99.90
36924;DHT22;22841;50.252;18.688;2023-08-08T05:52:32;13.40;99.90
36924;DHT22;22841;50.252;18.688;2023-08-08T05:54:58;13.40;99.90
36924;DHT22;22841;50.252;18.688;2023-08-08T05:57:27;13.50;99.90
36924;DHT22;22841;50.252;18.688;2023-08-08T05:59:53;13.50;99.90
36924;DHT22;22841;50.252;18.688;2023-08-08T06:02:19;13.60;99.90
36924;DHT22;22841;50.252;18.688;2023-08-08T06:04:45;13.60;99.90
36924;DHT22;22841;50.252;18.688;2023-08-08T06:07:12;13.70;99.90
36924;DHT22;22841;50.252;18.688;2023-08-08T06:09:38;13.80;99.90
36924;DHT22;22841;50.252;18.688;2023-08-08T06:12:04;13.80;99.90
36924;DHT22;22841;50.252;18.688;2023-08-08T06:14:31;13.90;99.90
36924;DHT22;22841;50.252;18.688;2023-08-08T06:16:57;13.90;99.90
36924;DHT22;22841;50.252;18.688;2023-08-08T06:19:23;14.00;99.90
36924;DHT22;22841;50.252;18.688;2023-08-08T06:21:50;14.00;99.90
36924;DHT22;22841;50.252;18.688;2023-08-08T06:24:16;14.10;99.90
36924;DHT22;22841;50.252;18.688;2023-08-08T06:26:42;14.10;99.90
36924;DHT22;22841;50.252;18.688;2023-08-08T06:29:08;14.10;99.90
36924;DHT22;22841;50.252;18.688;2023-08-08T06:31:34;14.20;99.90
36924;DHT22;22841;50.252;18.688;2023-08-08T06:34:01;14.20;99.90
36924;DHT22;22841;50.252;18.688;2023-08-08T06:36:27;14.20;99.90
36924;DHT22;22841;50.252;18.688;2023-08-08T06:38:53;14.30;99.90
36924;DHT22;22841;50.252;18.688;2023-08-08T06:41:20;14.40;99.90
36924;DHT22;22841;50.252;18.688;2023-08-08T06:43:46;14.50;99.90
36924;DHT22;22841;50.252;18.688;2023-08-08T06:46:12;14.50;99.90
36924;DHT22;22841;50.252;18.688;2023-08-08T06:48:38;14.60;99.90
36924;DHT22;22841;50.252;18.688;2023-08-08T06:51:05;14.60;99.90
36924;DHT22;22841;50.252;18.688;2023-08-08T06:53:31;14.60;99.90
36924;DHT22;22841;50.252;18.688;2023-08-08T06:55:57;14.70;1.00
36924;DHT22;22841;50.252;18.688;2023-08-08T06:58:23;14.70;1.00
36924;DHT22;22841;50.252;18.688;2023-08-08T07:00:50;14.80;1.00
36924;DHT22;22841;50.252;18.688;2023-08-08T07:03:16;14.80;1.00
36924;DHT22;22841;50.252;18.688;2023-08-08T07:05:43;14.90;99.90
36924;DHT22;22841;50.252;18.688;2023-08-08T07:08:09;14.90;99.90
36924;DHT22;22841;50.252;18.688;2023-08-08T07:10:36;15.10;23.70
36924;DHT22;22841;50.252;18.688;2023-08-08T07:13:02;15.20;99.90
36924;DHT22;22841;50.252;18.688;2023-08-08T07:15:28;15.30;99.90
36924;DHT22;22841;50.252;18.688;2023-08-08T07:17:55;15.30;1.00
36924;DHT22;22841;50.252;18.688;2023-08-08T07:20:21;15.50;99.90
36924;DHT22;22841;50.252;18.688;2023-08-08T07:22:48;15.70;99.90
36924;DHT22;22841;50.252;18.688;2023-08-08T07:25:14;15.80;1.00
36924;DHT22;22841;50.252;18.688;2023-08-08T07:27:41;15.90;99.90
36924;DHT22;22841;50.252;18.688;2023-08-08T07:30:07;15.90;99.90
36924;DHT22;22841;50.252;18.688;2023-08-08T07:32:34;15.80;99.90
36924;DHT22;22841;50.252;18.688;2023-08-08T07:35:00;15.70;99.90
36924;DHT22;22841;50.252;18.688;2023-08-08T07:37:28;15.60;99.90
36924;DHT22;22841;50.252;18.688;2023-08-08T07:39:54;15.50;99.90
36924;DHT22;22841;50.252;18.688;2023-08-08T07:42:21;15.50;68.00
36924;DHT22;22841;50.252;18.688;2023-08-08T07:44:47;15.70;15.90
36924;DHT22;22841;50.252;18.688;2023-08-08T07:47:13;15.90;1.00
36924;DHT22;22841;50.252;18.688;2023-08-08T07:49:39;16.00;99.90
36924;DHT22;22841;50.252;18.688;2023-08-08T07:52:06;16.00;99.90
36924;DHT22;22841;50.252;18.688;2023-08-08T07:54:33;16.20;99.90
36924;DHT22;22841;50.252;18.688;2023-08-08T07:56:59;16.40;99.90
36924;DHT22;22841;50.252;18.688;2023-08-08T07:59:26;16.40;1.00
36924;DHT22;22841;50.252;18.688;2023-08-08T08:01:52;16.40;1.00
36924;DHT22;22841;50.252;18.688;2023-08-08T08:04:18;16.50;99.90
36924;DHT22;22841;50.252;18.688;2023-08-08T08:06:45;16.70;99.90
36924;DHT22;22841;50.252;18.688;2023-08-08T08:09:11;16.60;99.90
36924;DHT22;22841;50.252;18.688;2023-08-08T08:11:37;16.70;57.60
36924;DHT22;22841;50.252;18.688;2023-08-08T08:14:03;16.70;1.00
36924;DHT22;22841;50.252;18.688;2023-08-08T08:16:29;16.70;1.00
36924;DHT22;22841;50.252;18.688;2023-08-08T08:18:56;16.80;1.00
36924;DHT22;22841;50.252;18.688;2023-08-08T08:21:22;16.80;99.90
36924;DHT22;22841;50.252;18.688;2023-08-08T08:23:48;16.90;99.90
36924;DHT22;22841;50.252;18.688;2023-08-08T08:26:14;17.00;99.90
36924;DHT22;22841;50.252;18.688;2023-08-08T08:28:40;17.10;99.90
36924;DHT22;22841;50.252;18.688;2023-08-08T08:31:07;17.20;99.90
36924;DHT22;22841;50.252;18.688;2023-08-08T08:33:34;17.20;99.90
36924;DHT22;22841;50.252;18.688;2023-08-08T08:36:01;17.00;99.90
36924;DHT22;22841;50.252;18.688;2023-08-08T08:38:27;16.90;99.90
36924;DHT22;22841;50.252;18.688;2023-08-08T08:40:54;16.70;99.90
36924;DHT22;22841;50.252;18.688;2023-08-08T08:43:22;16.70;99.90
36924;DHT22;22841;50.252;18.688;2023-08-08T08:45:52;16.70;99.90
36924;DHT22;22841;50.252;18.688;2023-08-08T08:48:21;16.80;99.90
36924;DHT22;22841;50.252;18.688;2023-08-08T08:50:48;16.70;99.90
36924;DHT22;22841;50.252;18.688;2023-08-08T08:53:15;16.50;99.90
36924;DHT22;22841;50.252;18.688;2023-08-08T08:55:43;16.30;99.90
36924;DHT22;22841;50.252;18.688;2023-08-08T08:58:11;16.20;99.90
36924;DHT22;22841;50.252;18.688;2023-08-08T09:00:39;16.10;99.90
36924;DHT22;22841;50.252;18.688;2023-08-08T09:03:06;16.00;99.90
36924;DHT22;22841;50.252;18.688;2023-08-08T09:05:33;16.00;99.90
36924;DHT22;22841;50.252;18.688;2023-08-08T09:08:00;16.00;99.90
36924;DHT22;22841;50.252;18.688;2023-08-08T09:10:26;16.00;99.90
36924;DHT22;22841;50.252;18.688;2023-08-08T09:12:53;16.10;99.90
36924;DHT22;22841;50.252;18.688;2023-08-08T09:15:20;16.30;99.90
36924;DHT22;22841;50.252;18.688;2023-08-08T09:17:46;16.60;99.90
36924;DHT22;22841;50.252;18.688;2023-08-08T09:20:13;16.70;99.90
36924;DHT22;22841;50.252;18.688;2023-08-08T09:22:39;16.70;99.90
36924;DHT22;22841;50.252;18.688;2023-08-08T09:25:07;16.50;99.90
36924;DHT22;22841;50.252;18.688;2023-08-08T09:27:35;16.50;99.90
36924;DHT22;22841;50.252;18.688;2023-08-08T09:30:02;16.40;99.90
36924;DHT22;22841;50.252;18.688;2023-08-08T09:32:32;16.30;99.90
36924;DHT22;22841;50.252;18.688;2023-08-08T09:34:58;16.20;99.90
36924;DHT22;22841;50.252;18.688;2023-08-08T09:37:27;16.10;99.90
36924;DHT22;22841;50.252;18.688;2023-08-08T09:39:58;16.00;99.90
36924;DHT22;22841;50.252;18.688;2023-08-08T09:42:28;16.00;99.90
36924;DHT22;22841;50.252;18.688;2023-08-08T09:44:59;16.00;99.90
36924;DHT22;22841;50.252;18.688;2023-08-08T09:47:26;16.20;99.90
36924;DHT22;22841;50.252;18.688;2023-08-08T09:50:00;16.50;99.90
36924;DHT22;22841;50.252;18.688;2023-08-08T09:52:28;16.90;99.90
36924;DHT22;22841;50.252;18.688;2023-08-08T09:54:55;17.20;99.90
36924;DHT22;22841;50.252;18.688;2023-08-08T09:57:22;17.40;99.90
36924;DHT22;22841;50.252;18.688;2023-08-08T09:59:51;17.50;99.90
36924;DHT22;22841;50.252;18.688;2023-08-08T10:02:18;17.40;99.90
36924;DHT22;22841;50.252;18.688;2023-08-08T10:04:48;17.20;99.90
36924;DHT22;22841;50.252;18.688;2023-08-08T10:07:14;17.10;99.90
36924;DHT22;22841;50.252;18.688;2023-08-08T10:09:41;17.00;99.90
36924;DHT22;22841;50.252;18.688;2023-08-08T10:12:08;16.70;99.90
36924;DHT22;22841;50.252;18.688;2023-08-08T10:14:36;16.60;99.90
36924;DHT22;22841;50.252;18.688;2023-08-08T10:17:07;16.50;98.90
36924;DHT22;22841;50.252;18.688;2023-08-08T10:19:34;16.40;99.90
36924;DHT22;22841;50.252;18.688;2023-08-08T10:22:05;16.30;99.90
36924;DHT22;22841;50.252;18.688;2023-08-08T10:24:35;16.20;99.90
36924;DHT22;22841;50.252;18.688;2023-08-08T10:27:02;16.10;99.90
36924;DHT22;22841;50.252;18.688;2023-08-08T10:29:32;16.10;99.90
36924;DHT22;22841;50.252;18.688;2023-08-08T10:32:05;16.00;99.90
36924;DHT22;22841;50.252;18.688;2023-08-08T10:34:44;16.00;99.90
36924;DHT22;22841;50.252;18.688;2023-08-08T10:37:12;16.10;99.90
36924;DHT22;22841;50.252;18.688;2023-08-08T10:39:54;16.30;99.90
36924;DHT22;22841;50.252;18.688;2023-08-08T10:42:22;16.60;99.90
36924;DHT22;22841;50.252;18.688;2023-08-08T10:44:55;16.90;99.90
36924;DHT22;22841;50.252;18.688;2023-08-08T10:47:43;17.10;99.90
36924;DHT22;22841;50.252;18.688;2023-08-08T10:57:57;17.60;99.90
36924;DHT22;22841;50.252;18.688;2023-08-08T11:00:25;17.80;99.90
36924;DHT22;22841;50.252;18.688;2023-08-08T11:02:53;17.90;99.90
36924;DHT22;22841;50.252;18.688;2023-08-08T11:05:21;17.60;97.50
36924;DHT22;22841;50.252;18.688;2023-08-08T11:07:48;17.60;91.60
36924;DHT22;22841;50.252;18.688;2023-08-08T11:10:15;17.60;86.60
36924;DHT22;22841;50.252;18.688;2023-08-08T11:12:41;17.60;73.20
36924;DHT22;22841;50.252;18.688;2023-08-08T11:15:08;17.60;59.50
36924;DHT22;22841;50.252;18.688;2023-08-08T11:17:34;17.70;49.80
36924;DHT22;22841;50.252;18.688;2023-08-08T11:20:02;17.70;38.70
36924;DHT22;22841;50.252;18.688;2023-08-08T11:22:29;17.60;29.90
36924;DHT22;22841;50.252;18.688;2023-08-08T11:24:56;17.60;25.90
36924;DHT22;22841;50.252;18.688;2023-08-08T11:27:29;17.80;25.20
36924;DHT22;22841;50.252;18.688;2023-08-08T11:29:56;17.80;20.70
36924;DHT22;22841;50.252;18.688;2023-08-08T11:32:27;17.70;18.60
36924;DHT22;22841;50.252;18.688;2023-08-08T11:34:57;17.70;15.30
36924;DHT22;22841;50.252;18.688;2023-08-08T11:37:23;17.60;14.20
36924;DHT22;22841;50.252;18.688;2023-08-08T11:39:49;17.70;11.00
36924;DHT22;22841;50.252;18.688;2023-08-08T11:42:16;17.70;10.50
36924;DHT22;22841;50.252;18.688;2023-08-08T11:44:42;17.70;10.80
36924;DHT22;22841;50.252;18.688;2023-08-08T11:47:09;17.80;10.60
36924;DHT22;22841;50.252;18.688;2023-08-08T11:49:40;17.80;10.00
36924;DHT22;22841;50.252;18.688;2023-08-08T11:52:08;17.90;8.30
36924;DHT22;22841;50.252;18.688;2023-08-08T11:54:37;17.90;10.30
36924;DHT22;22841;50.252;18.688;2023-08-08T11:57:04;17.90;10.50
36924;DHT22;22841;50.252;18.688;2023-08-08T11:59:31;17.90;11.40
36924;DHT22;22841;50.252;18.688;2023-08-08T12:01:58;18.00;12.90
36924;DHT22;22841;50.252;18.688;2023-08-08T12:04:24;18.10;14.70
36924;DHT22;22841;50.252;18.688;2023-08-08T12:06:50;18.30;15.80
36924;DHT22;22841;50.252;18.688;2023-08-08T12:09:31;18.50;13.70
36924;DHT22;22841;50.252;18.688;2023-08-08T12:12:02;18.40;10.60
36924;DHT22;22841;50.252;18.688;2023-08-08T12:14:28;18.30;7.80
36924;DHT22;22841;50.252;18.688;2023-08-08T12:16:55;18.20;6.60
36924;DHT22;22841;50.252;18.688;2023-08-08T12:19:25;18.20;4.30
36924;DHT22;22841;50.252;18.688;2023-08-08T12:21:52;18.20;3.70
36924;DHT22;22841;50.252;18.688;2023-08-08T12:24:18;18.30;11.80
36924;DHT22;22841;50.252;18.688;2023-08-08T12:26:45;18.30;3.50
36924;DHT22;22841;50.252;18.688;2023-08-08T12:29:11;18.30;2.40
36924;DHT22;22841;50.252;18.688;2023-08-08T12:31:38;18.20;1.00
36924;DHT22;22841;50.252;18.688;2023-08-08T12:34:05;18.10;1.00
36924;DHT22;22841;50.252;18.688;2023-08-08T12:36:31;18.10;1.00
36924;DHT22;22841;50.252;18.688;2023-08-08T12:38:57;18.00;3.10
36924;DHT22;22841;50.252;18.688;2023-08-08T12:41:24;18.00;2.40
36924;DHT22;22841;50.252;18.688;2023-08-08T12:43:51;17.90;1.70
36924;DHT22;22841;50.252;18.688;2023-08-08T12:46:17;17.80;1.00
36924;DHT22;22841;50.252;18.688;2023-08-08T12:48:43;17.70;1.00
36924;DHT22;22841;50.252;18.688;2023-08-08T12:51:10;17.60;1.00
36924;DHT22;22841;50.252;18.688;2023-08-08T12:53:37;17.60;1.00
36924;DHT22;22841;50.252;18.688;2023-08-08T12:56:03;17.70;1.00
36924;DHT22;22841;50.252;18.688;2023-08-08T12:58:29;18.00;2.10
36924;DHT22;22841;50.252;18.688;2023-08-08T13:00:56;18.10;1.00
36924;DHT22;22841;50.252;18.688;2023-08-08T13:03:22;18.20;1.00
36924;DHT22;22841;50.252;18.688;2023-08-08T13:05:48;18.30;1.00
36924;DHT22;22841;50.252;18.688;2023-08-08T13:08:14;18.40;1.00
36924;DHT22;22841;50.252;18.688;2023-08-08T13:10:41;18.50;1.00
36924;DHT22;22841;50.252;18.688;2023-08-08T13:13:07;18.40;1.00
36924;DHT22;22841;50.252;18.688;2023-08-08T13:15:35;18.40;1.00
36924;DHT22;22841;50.252;18.688;2023-08-08T13:18:01;18.30;1.00
36924;DHT22;22841;50.252;18.688;2023-08-08T13:20:27;18.40;1.00
36924;DHT22;22841;50.252;18.688;2023-08-08T13:22:53;18.40;1.00
36924;DHT22;22841;50.252;18.688;2023-08-08T13:25:20;18.50;1.00
36924;DHT22;22841;50.252;18.688;2023-08-08T13:27:46;18.60;1.00
36924;DHT22;22841;50.252;18.688;2023-08-08T13:30:13;18.40;1.00
36924;DHT22;22841;50.252;18.688;2023-08-08T13:32:42;18.20;1.00
36924;DHT22;22841;50.252;18.688;2023-08-08T13:35:08;18.10;1.00
36924;DHT22;22841;50.252;18.688;2023-08-08T13:37:34;18.10;1.00
36924;DHT22;22841;50.252;18.688;2023-08-08T13:40:01;18.00;1.00
36924;DHT22;22841;50.252;18.688;2023-08-08T13:42:27;18.10;1.00
36924;DHT22;22841;50.252;18.688;2023-08-08T13:44:53;18.30;1.00
36924;DHT22;22841;50.252;18.688;2023-08-08T13:47:19;18.50;1.00
36924;DHT22;22841;50.252;18.688;2023-08-08T13:49:46;18.80;1.00
36924;DHT22;22841;50.252;18.688;2023-08-08T13:52:12;18.90;1.00
36924;DHT22;22841;50.252;18.688;2023-08-08T13:54:38;19.10;1.00
36924;DHT22;22841;50.252;18.688;2023-08-08T13:57:05;19.30;1.00
36924;DHT22;22841;50.252;18.688;2023-08-08T13:59:31;19.40;1.00
36924;DHT22;22841;50.252;18.688;2023-08-08T14:01:58;19.40;1.00
36924;DHT22;22841;50.252;18.688;2023-08-08T14:04:24;19.60;1.00
36924;DHT22;22841;50.252;18.688;2023-08-08T14:06:50;19.50;1.00
36924;DHT22;22841;50.252;18.688;2023-08-08T14:09:16;19.30;1.00
36924;DHT22;22841;50.252;18.688;2023-08-08T14:11:43;19.30;1.00
36924;DHT22;22841;50.252;18.688;2023-08-08T14:14:09;19.30;1.00
36924;DHT22;22841;50.252;18.688;2023-08-08T14:16:35;19.20;1.00
36924;DHT22;22841;50.252;18.688;2023-08-08T14:19:01;19.10;1.00
36924;DHT22;22841;50.252;18.688;2023-08-08T14:21:28;19.20;1.00
36924;DHT22;22841;50.252;18.688;2023-08-08T14:23:54;19.20;1.00
36924;DHT22;22841;50.252;18.688;2023-08-08T14:26:20;19.30;1.00
36924;DHT22;22841;50.252;18.688;2023-08-08T14:28:47;19.40;1.00
36924;DHT22;22841;50.252;18.688;2023-08-08T14:31:13;19.40;1.00
36924;DHT22;22841;50.252;18.688;2023-08-08T14:33:39;19.30;1.00
36924;DHT22;22841;50.252;18.688;2023-08-08T14:36:05;19.10;1.00
36924;DHT22;22841;50.252;18.688;2023-08-08T14:38:35;19.00;1.00
36924;DHT22;22841;50.252;18.688;2023-08-08T14:41:02;19.10;1.00
36924;DHT22;22841;50.252;18.688;2023-08-08T14:43:28;19.30;1.00
36924;DHT22;22841;50.252;18.688;2023-08-08T14:45:54;19.40;1.00
36924;DHT22;22841;50.252;18.688;2023-08-08T14:48:20;19.50;1.00
36924;DHT22;22841;50.252;18.688;2023-08-08T14:50:47;19.20;1.00
36924;DHT22;22841;50.252;18.688;2023-08-08T14:53:13;19.00;1.00
36924;DHT22;22841;50.252;18.688;2023-08-08T14:55:41;18.90;1.00
36924;DHT22;22841;50.252;18.688;2023-08-08T14:58:07;18.90;1.00
36924;DHT22;22841;50.252;18.688;2023-08-08T15:00:33;18.90;1.00
36924;DHT22;22841;50.252;18.688;2023-08-08T15:03:00;19.00;1.00
36924;DHT22;22841;50.252;18.688;2023-08-08T15:05:26;19.00;1.00
36924;DHT22;22841;50.252;18.688;2023-08-08T15:07:52;19.10;1.00
36924;DHT22;22841;50.252;18.688;2023-08-08T15:10:18;18.90;1.00
36924;DHT22;22841;50.252;18.688;2023-08-08T15:12:44;18.70;1.00
36924;DHT22;22841;50.252;18.688;2023-08-08T15:15:11;18.70;1.00
36924;DHT22;22841;50.252;18.688;2023-08-08T15:17:38;18.50;1.00
36924;DHT22;22841;50.252;18.688;2023-08-08T15:20:04;18.40;1.00
36924;DHT22;22841;50.252;18.688;2023-08-08T15:22:31;18.30;1.00
36924;DHT22;22841;50.252;18.688;2023-08-08T15:24:58;18.20;1.00
36924;DHT22;22841;50.252;18.688;2023-08-08T15:27:24;18.10;2.00
36924;DHT22;22841;50.252;18.688;2023-08-08T15:29:50;17.90;15.10